»·PEaware :: TPX291 KLAS-KBUR

TPX291 :: KLAS-KBUR

FLIGHT INFORMATION

Flight Status: Arrived
Operator: ATP Experience
More flights by this operator :: More flights under this callsign
Pilot: Joe C. (3077)
Aircraft: BOEING 737-800
(B738)
More flights by this aircraft type
Origin: KLAS McCarran Intl
United States
Destination: KBUR Bob Hope-Burbank
United States
More flights between these airports :: More routes between these airports
Route: +BOACH8 HEC LYNXX8
File this flight plan on PilotEdge
Remarks:
Altitude:
(Current/Filed)
22,000ft
Speed:
(Current/Filed)
440kts
Departed: 09-Oct-18 06:59 PM
Arrived: 09-Oct-18 07:46 PM
Distance/Time
Traveled:
193nm/0:46
Distance/Time
To Go:
Arrived

Flight Plot

Page will automatically refresh every two minutes.

Flight plan parsing failed; only flown route is shown


Map Options




Map Legend


Flown Route
Filed Route
Departure Airport
Arrival Airport
Navaid (VOR, NDB)
Fix

Horizontal Profiles

Position Reports

Time Latitude Longitude Heading Altitude Ground
Speed
09-Oct-18 18:24 36.080701 -115.138787 314 2068ft 0kts
09-Oct-18 18:25 36.080701 -115.138787 314 2068ft 0kts
09-Oct-18 18:26 36.080701 -115.138787 315 2068ft 0kts
09-Oct-18 18:27 36.080701 -115.138787 314 2068ft 0kts
09-Oct-18 18:28 36.080701 -115.138787 314 2068ft 0kts
09-Oct-18 18:29 36.080701 -115.138787 314 2068ft 0kts
09-Oct-18 18:30 36.080701 -115.138786 314 2068ft 0kts
09-Oct-18 18:31 36.080701 -115.138787 314 2068ft 0kts
09-Oct-18 18:32 36.080512 -115.138552 315 2068ft 2kts
09-Oct-18 18:33 36.080241 -115.138216 315 2067ft 2kts
09-Oct-18 18:34 36.079958 -115.137754 251 2067ft 2kts
09-Oct-18 18:35 36.080269 -115.137771 94 2066ft 0kts
09-Oct-18 18:36 36.080272 -115.137853 96 2066ft 0kts
09-Oct-18 18:37 36.080272 -115.137853 96 2066ft 0kts
09-Oct-18 18:38 36.080260 -115.137837 133 2066ft 0kts
09-Oct-18 18:39 36.080254 -115.137834 145 2066ft 0kts
09-Oct-18 18:40 36.080231 -115.137841 197 2067ft 0kts
09-Oct-18 18:41 36.080216 -115.137877 246 2067ft 0kts
09-Oct-18 18:42 36.080211 -115.137893 247 2067ft 0kts
09-Oct-18 18:43 36.080211 -115.137893 247 2067ft 0kts
09-Oct-18 18:44 36.080211 -115.137893 247 2067ft 0kts
09-Oct-18 18:45 36.080211 -115.137893 247 2067ft 0kts
09-Oct-18 18:46 36.080211 -115.137894 247 2067ft 0kts
09-Oct-18 18:47 36.080211 -115.137893 247 2067ft 0kts
09-Oct-18 18:48 36.080211 -115.137893 247 2067ft 0kts
09-Oct-18 18:49 36.080211 -115.137893 247 2067ft 0kts
09-Oct-18 18:50 36.080211 -115.137893 247 2067ft 0kts
09-Oct-18 18:51 36.080211 -115.137893 247 2067ft 0kts
09-Oct-18 18:52 36.080211 -115.137893 247 2067ft 0kts
09-Oct-18 18:53 36.080211 -115.137893 247 2067ft 0kts
09-Oct-18 18:54 36.079876 -115.137114 126 2066ft 10kts
09-Oct-18 18:55 36.078308 -115.133606 89 2059ft 26kts
09-Oct-18 18:56 36.078289 -115.130176 91 2049ft 33kts
09-Oct-18 18:57 36.078044 -115.122323 121 2036ft 3kts
09-Oct-18 18:58 36.077888 -115.122091 132 2036ft 0kts
09-Oct-18 18:59 36.077721 -115.121859 130 2036ft 5kts
09-Oct-18 19:00 36.076463 -115.121726 269 2038ft 0kts
09-Oct-18 19:01 36.076374 -115.129442 269 2051ft 111kts
09-Oct-18 19:02 36.077667 -115.180138 261 3912ft 172kts
09-Oct-18 19:03 36.069549 -115.247033 236 5036ft 243kts
09-Oct-18 19:04 36.005849 -115.287652 202 7027ft 268kts
09-Oct-18 19:05 35.932408 -115.309487 186 8580ft 281kts
09-Oct-18 19:06 35.852128 -115.317095 185 10618ft 329kts
09-Oct-18 19:07 35.751727 -115.304842 176 12131ft 385kts
09-Oct-18 19:08 35.650485 -115.335655 219 14987ft 388kts
09-Oct-18 19:09 35.575357 -115.431602 230 18006ft 399kts
09-Oct-18 19:10 35.499340 -115.533848 231 20748ft 414kts
09-Oct-18 19:11 35.421302 -115.638371 231 21774ft 421kts
09-Oct-18 19:12 35.343131 -115.742605 231 21790ft 420kts
09-Oct-18 19:13 35.264083 -115.847666 231 21805ft 420kts
09-Oct-18 19:14 35.185047 -115.952400 231 21818ft 420kts
09-Oct-18 19:15 35.105752 -116.057160 231 21817ft 420kts
09-Oct-18 19:16 35.031192 -116.164819 247 21821ft 412kts
09-Oct-18 19:17 35.000833 -116.299083 258 21819ft 411kts
09-Oct-18 19:18 34.973358 -116.434411 258 21807ft 413kts
09-Oct-18 19:19 34.945563 -116.570556 258 21799ft 415kts
09-Oct-18 19:20 34.917788 -116.705734 257 21801ft 417kts
09-Oct-18 19:21 34.889822 -116.840858 257 21799ft 419kts
09-Oct-18 19:22 34.861169 -116.978594 257 21800ft 421kts
09-Oct-18 19:23 34.832169 -117.117262 257 21815ft 423kts
09-Oct-18 19:24 34.803300 -117.254480 257 21849ft 420kts
09-Oct-18 19:25 34.774232 -117.391919 257 21869ft 419kts
09-Oct-18 19:26 34.745362 -117.527648 256 20239ft 409kts
09-Oct-18 19:27 34.718102 -117.655160 256 17697ft 376kts
09-Oct-18 19:28 34.692988 -117.772015 255 15690ft 349kts
09-Oct-18 19:29 34.669204 -117.882290 255 13753ft 334kts
09-Oct-18 19:30 34.645633 -117.991201 255 11867ft 332kts
09-Oct-18 19:31 34.623645 -118.092462 255 10968ft 296kts
09-Oct-18 19:32 34.606928 -118.169305 255 10264ft 275kts
09-Oct-18 19:33 34.584625 -118.271699 255 9069ft 268kts
09-Oct-18 19:34 34.565829 -118.358062 255 8026ft 265kts
09-Oct-18 19:35 34.546849 -118.442832 254 7270ft 262kts
09-Oct-18 19:36 34.494498 -118.487875 182 6615ft 277kts
09-Oct-18 19:37 34.432178 -118.486972 165 6006ft 254kts
09-Oct-18 19:38 34.360368 -118.458730 172 6025ft 211kts
09-Oct-18 19:39 34.314549 -118.458439 181 5502ft 186kts
09-Oct-18 19:40 34.271746 -118.440339 104 3903ft 185kts
09-Oct-18 19:41 34.255290 -118.387920 125 2199ft 159kts
09-Oct-18 19:42 34.221341 -118.395934 204 1474ft 144kts
09-Oct-18 19:43 34.200218 -118.364944 96 1216ft 149kts
09-Oct-18 19:44 34.173697 -118.364195 252 2003ft 150kts
09-Oct-18 19:45 34.175179 -118.415371 289 2086ft 155kts
09-Oct-18 19:46 34.202382 -118.406094 104 1774ft 155kts
09-Oct-18 19:47 34.197698 -118.356071 89 711ft 80kts
09-Oct-18 19:48 34.197201 -118.354002 266 704ft 0kts

Navigation Log

Ident Type
Flight plan parsing failed, navigation log unavailable